Time,TemperatureF,DewpointF,PressureIn,WindDirection,WindDirectionDegrees,WindSpeedMPH,WindSpeedGustMPH,Humidity,HourlyPrecipIn,Conditions,Clouds,dailyrainin,SoftwareType,DateUTC
2013-01-13 00:04:00,21.0,14.2,29.74,WSW,248,0.0,0.0,75,0.00,,,0.00,WUHU216HW,2013-01-13 06:04:00,
2013-01-13 00:09:00,21.0,14.2,29.75,West,270,1.7,1.7,75,0.00,,,0.00,WUHU216HW,2013-01-13 06:09:00,
2013-01-13 00:14:00,21.0,14.2,29.75,WSW,248,2.0,2.0,75,0.00,,,0.00,WUHU216HW,2013-01-13 06:14:00,
2013-01-13 00:19:00,20.8,14.0,29.75,WSW,248,4.4,4.4,75,0.00,,,0.00,WUHU216HW,2013-01-13 06:19:00,
2013-01-13 00:24:00,20.8,14.0,29.74,West,270,0.0,4.4,75,0.00,,,0.00,WUHU216HW,2013-01-13 06:24:00,
2013-01-13 00:29:00,20.8,14.0,29.75,WNW,293,0.0,0.0,75,0.00,,,0.00,WUHU216HW,2013-01-13 06:29:00,
2013-01-13 00:34:00,20.8,14.0,29.74,NW,315,0.0,0.0,75,0.00,,,0.00,WUHU216HW,2013-01-13 06:34:00,
2013-01-13 00:39:00,20.8,14.0,29.74,West,259,2.2,3.3,75,0.00,,,0.00,WUHU216HW,2013-01-13 06:39:00,
2013-01-13 00:44:00,20.8,14.0,29.74,WNW,293,0.0,3.3,75,0.00,,,0.00,WUHU216HW,2013-01-13 06:44:00,
2013-01-13 00:49:00,20.4,13.9,29.74,SW,225,0.0,0.0,75,0.00,,,0.00,WUHU216HW,2013-01-13 06:49:00,
2013-01-13 00:54:00,20.6,13.9,29.74,WSW,248,0.0,3.5,75,0.00,,,0.00,WUHU216HW,2013-01-13 06:54:00,
2013-01-13 00:59:00,20.8,14.0,29.74,South,180,0.0,6.0,75,0.00,,,0.00,WUHU216HW,2013-01-13 06:59:00,
2013-01-13 01:04:00,20.4,13.9,29.74,SW,225,0.0,6.0,75,0.00,,,0.00,WUHU216HW,2013-01-13 07:04:00,
2013-01-13 01:09:00,20.4,13.7,29.75,West,270,0.0,2.2,75,0.00,,,0.00,WUHU216HW,2013-01-13 07:09:00,
2013-01-13 01:14:00,20.4,13.7,29.74,West,260,3.1,4.4,75,0.00,,,0.00,WUHU216HW,2013-01-13 07:14:00,
2013-01-13 01:19:00,20.3,13.5,29.75,West,270,0.0,4.4,75,0.00,,,0.00,WUHU216HW,2013-01-13 07:19:00,
2013-01-13 01:24:00,20.1,13.3,29.74,NW,315,0.0,4.4,75,0.00,,,0.00,WUHU216HW,2013-01-13 07:24:00,
2013-01-13 01:29:00,20.1,13.0,29.73,SW,225,0.0,0.0,74,0.00,,,0.00,WUHU216HW,2013-01-13 07:29:00,
2013-01-13 01:34:00,19.9,12.8,29.74,WNW,293,0.0,5.1,74,0.00,,,0.00,WUHU216HW,2013-01-13 07:34:00,
2013-01-13 01:39:00,19.9,12.8,29.75,West,270,1.8,5.1,74,0.00,,,0.00,WUHU216HW,2013-01-13 07:39:00,
2013-01-13 01:44:00,19.7,12.7,29.73,NNW,338,3.5,3.5,74,0.00,,,0.00,WUHU216HW,2013-01-13 07:44:00,
2013-01-13 01:49:00,19.5,12.5,29.73,WNW,293,0.0,3.5,74,0.00,,,0.00,WUHU216HW,2013-01-13 07:49:00,
2013-01-13 01:54:00,19.5,12.8,29.73,WSW,248,0.0,2.2,75,0.00,,,0.00,WUHU216HW,2013-01-13 07:54:00,
2013-01-13 01:59:00,19.5,12.8,29.74,SW,225,0.0,0.0,75,0.00,,,0.00,WUHU216HW,2013-01-13 07:59:00,
2013-01-13 02:04:00,19.5,13.1,29.74,West,270,0.0,0.0,76,0.00,,,0.00,WUHU216HW,2013-01-13 08:04:00,
2013-01-13 02:09:00,19.5,13.1,29.73,WSW,248,0.0,0.0,76,0.00,,,0.00,WUHU216HW,2013-01-13 08:09:00,
2013-01-13 02:14:00,19.5,13.1,29.73,West,270,0.0,0.0,76,0.00,,,0.00,WUHU216HW,2013-01-13 08:14:00,
2013-01-13 02:19:00,19.2,12.4,29.70,NE,45,0.0,0.0,75,0.00,,,0.00,WUHU216HW,2013-01-13 08:19:00,
2013-01-13 02:24:00,19.2,12.4,29.70,NNE,23,0.0,0.0,75,0.00,,,0.00,WUHU216HW,2013-01-13 08:24:00,
2013-01-13 02:29:00,18.8,12.1,29.74,WNW,293,0.0,0.0,75,0.00,,,0.00,WUHU216HW,2013-01-13 08:29:00,
2013-01-13 02:34:00,18.6,11.9,29.72,SW,225,0.0,0.0,75,0.00,,,0.00,WUHU216HW,2013-01-13 08:34:00,
2013-01-13 02:39:00,18.3,11.6,29.74,SW,225,0.0,0.0,75,0.00,,,0.00,WUHU216HW,2013-01-13 08:39:00,
2013-01-13 02:44:00,18.3,11.9,29.71,SSW,203,0.0,0.0,76,0.00,,,0.00,WUHU216HW,2013-01-13 08:44:00,
2013-01-13 02:49:00,18.1,11.7,29.71,WSW,248,0.0,0.0,76,0.00,,,0.00,WUHU216HW,2013-01-13 08:49:00,
2013-01-13 02:54:00,17.9,11.7,29.71,SW,225,0.0,0.0,76,0.00,,,0.00,WUHU216HW,2013-01-13 08:54:00,
2013-01-13 02:59:00,17.7,11.3,29.72,SW,225,0.0,0.0,76,0.00,,,0.00,WUHU216HW,2013-01-13 08:59:00,
2013-01-13 03:04:00,17.6,11.2,29.73,WSW,248,0.0,2.9,76,0.00,,,0.00,WUHU216HW,2013-01-13 09:04:00,
2013-01-13 03:09:00,17.4,11.0,29.73,NW,315,0.0,2.9,76,0.00,,,0.00,WUHU216HW,2013-01-13 09:09:00,
2013-01-13 03:14:00,17.2,10.8,29.72,WSW,248,0.0,2.0,76,0.00,,,0.00,WUHU216HW,2013-01-13 09:14:00,
2013-01-13 03:19:00,17.2,10.8,29.72,WSW,248,0.0,1.1,76,0.00,,,0.00,WUHU216HW,2013-01-13 09:19:00,
2013-01-13 03:24:00,17.4,11.0,29.73,WSW,248,0.0,0.0,76,0.00,,,0.00,WUHU216HW,2013-01-13 09:24:00,
2013-01-13 03:29:00,17.7,11.3,29.73,West,270,0.0,0.0,76,0.00,,,0.00,WUHU216HW,2013-01-13 09:29:00,
2013-01-13 03:34:00,17.7,11.3,29.73,WSW,248,0.0,0.0,76,0.00,,,0.00,WUHU216HW,2013-01-13 09:34:00,
2013-01-13 03:39:00,17.9,11.5,29.75,SW,225,0.0,3.5,76,0.00,,,0.00,WUHU216HW,2013-01-13 09:39:00,
2013-01-13 03:44:00,17.9,11.5,29.75,SW,225,0.0,3.5,76,0.00,,,0.00,WUHU216HW,2013-01-13 09:44:00,
2013-01-13 03:49:00,17.9,11.5,29.75,WSW,248,4.2,4.2,76,0.00,,,0.00,WUHU216HW,2013-01-13 09:49:00,
2013-01-13 03:54:00,17.7,11.3,29.75,WNW,293,4.4,4.4,76,0.00,,,0.00,WUHU216HW,2013-01-13 09:54:00,
2013-01-13 03:59:00,17.7,11.3,29.75,WSW,248,0.0,4.6,76,0.00,,,0.00,WUHU216HW,2013-01-13 09:59:00,
2013-01-13 04:04:00,17.4,11.0,29.75,NW,315,2.9,4.6,76,0.00,,,0.00,WUHU216HW,2013-01-13 10:04:00,
2013-01-13 04:09:00,17.4,11.0,29.74,West,270,0.0,2.9,76,0.00,,,0.00,WUHU216HW,2013-01-13 10:09:00,
2013-01-13 04:14:00,17.4,11.0,29.75,WSW,248,5.1,5.1,76,0.00,,,0.00,WUHU216HW,2013-01-13 10:14:00,
2013-01-13 04:19:00,17.4,11.0,29.74,SW,225,0.0,5.1,76,0.00,,,0.00,WUHU216HW,2013-01-13 10:19:00,
2013-01-13 04:24:00,17.6,11.2,29.74,WSW,248,0.0,3.5,76,0.00,,,0.00,WUHU216HW,2013-01-13 10:24:00,
2013-01-13 04:29:00,17.4,10.7,29.73,WSW,248,0.0,0.0,76,0.00,,,0.00,WUHU216HW,2013-01-13 10:29:00,
2013-01-13 04:34:00,17.4,10.7,29.73,WNW,293,0.0,3.5,75,0.00,,,0.00,WUHU216HW,2013-01-13 10:34:00,
2013-01-13 04:39:00,17.4,10.7,29.72,WSW,248,0.0,3.5,75,0.00,,,0.00,WUHU216HW,2013-01-13 10:39:00,
2013-01-13 04:44:00,17.4,10.7,29.72,SSW,203,0.0,0.0,75,0.00,,,0.00,WUHU216HW,2013-01-13 10:44:00,
2013-01-13 04:49:00,17.4,10.7,29.71,WNW,293,0.0,0.0,75,0.00,,,0.00,WUHU216HW,2013-01-13 10:49:00,
2013-01-13 04:54:00,17.4,10.7,29.71,SW,225,0.0,0.0,75,0.00,,,0.00,WUHU216HW,2013-01-13 10:54:00,
2013-01-13 05:00:00,17.4,10.7,29.71,WSW,248,0.0,0.0,75,0.00,,,0.00,WUHU216HW,2013-01-13 11:00:00,
2013-01-13 05:05:00,17.4,10.7,29.71,WNW,293,0.0,0.0,75,0.00,,,0.00,WUHU216HW,2013-01-13 11:05:00,
2013-01-13 05:10:00,17.4,10.7,29.72,WSW,248,0.0,0.0,75,0.00,,,0.00,WUHU216HW,2013-01-13 11:10:00,
2013-01-13 05:15:00,17.4,11.0,29.73,SW,225,0.0,0.0,76,0.00,,,0.00,WUHU216HW,2013-01-13 11:15:00,
2013-01-13 05:20:00,17.4,11.0,29.73,West,270,0.0,0.0,76,0.00,,,0.00,WUHU216HW,2013-01-13 11:20:00,
2013-01-13 05:25:00,17.4,10.7,29.74,West,270,0.0,0.0,75,0.00,,,0.00,WUHU216HW,2013-01-13 11:25:00,
2013-01-13 05:30:00,17.2,10.5,29.74,WSW,248,0.0,0.0,75,0.00,,,0.00,WUHU216HW,2013-01-13 11:30:00,
2013-01-13 05:35:00,16.8,10.2,29.75,SW,225,5.1,5.1,75,0.00,,,0.00,WUHU216HW,2013-01-13 11:35:00,
2013-01-13 05:40:00,16.5,9.6,29.75,NW,315,1.1,5.1,74,0.00,,,0.00,WUHU216HW,2013-01-13 11:40:00,
2013-01-13 05:45:00,16.3,9.4,29.77,SW,225,0.0,4.6,74,0.00,,,0.00,WUHU216HW,2013-01-13 11:45:00,
2013-01-13 05:50:00,16.1,9.2,29.77,WNW,293,2.2,2.2,74,0.00,,,0.00,WUHU216HW,2013-01-13 11:50:00,
2013-01-13 05:55:00,15.9,9.0,29.78,WSW,248,0.0,2.2,74,0.00,,,0.00,WUHU216HW,2013-01-13 11:55:00,
2013-01-13 06:00:00,15.9,9.0,29.77,WNW,293,0.0,0.0,74,0.00,,,0.00,WUHU216HW,2013-01-13 12:00:00,
2013-01-13 06:05:00,15.8,9.2,29.77,West,270,0.0,0.0,75,0.00,,,0.00,WUHU216HW,2013-01-13 12:05:00,
2013-01-13 06:10:00,15.6,9.0,29.77,WSW,248,0.0,2.4,75,0.00,,,0.00,WUHU216HW,2013-01-13 12:10:00,
2013-01-13 06:15:00,15.4,8.5,29.77,WNW,293,0.0,2.4,74,0.00,,,0.00,WUHU216HW,2013-01-13 12:15:00,
2013-01-13 06:20:00,15.2,8.4,29.77,West,270,0.0,0.0,74,0.00,,,0.00,WUHU216HW,2013-01-13 12:20:00,
2013-01-13 06:25:00,14.9,8.5,29.78,WSW,248,0.0,0.0,75,0.00,,,0.00,WUHU216HW,2013-01-13 12:25:00,
2013-01-13 06:30:00,14.9,8.3,29.78,WNW,293,0.0,1.5,75,0.00,,,0.00,WUHU216HW,2013-01-13 12:30:00,
2013-01-13 06:35:00,14.9,8.3,29.77,WNW,293,0.0,4.2,75,0.00,,,0.00,WUHU216HW,2013-01-13 12:35:00,
2013-01-13 06:40:00,14.9,8.3,29.78,WNW,293,0.0,4.2,75,0.00,,,0.00,WUHU216HW,2013-01-13 12:40:00,
2013-01-13 06:45:00,14.9,8.3,29.77,WSW,248,0.0,1.7,75,0.00,,,0.00,WUHU216HW,2013-01-13 12:45:00,
2013-01-13 06:50:00,14.9,8.3,29.77,West,270,0.0,1.7,75,0.00,,,0.00,WUHU216HW,2013-01-13 12:50:00,
2013-01-13 06:55:00,14.9,8.3,29.78,WSW,248,4.9,4.9,75,0.00,,,0.00,WUHU216HW,2013-01-13 12:55:00,
2013-01-13 07:00:00,15.0,8.5,29.77,West,270,0.0,4.9,75,0.00,,,0.00,WUHU216HW,2013-01-13 13:00:00,
2013-01-13 07:05:00,15.0,8.5,29.78,WNW,293,0.0,0.0,75,0.00,,,0.00,WUHU216HW,2013-01-13 13:05:00,
2013-01-13 07:10:00,15.0,8.5,29.79,WSW,248,0.0,0.0,75,0.00,,,0.00,WUHU216HW,2013-01-13 13:10:00,
2013-01-13 07:15:00,15.0,8.3,29.78,WNW,293,2.4,2.4,75,0.00,,,0.00,WUHU216HW,2013-01-13 13:15:00,
2013-01-13 07:20:00,14.9,8.3,29.79,WNW,293,0.0,2.4,75,0.00,,,0.00,WUHU216HW,2013-01-13 13:20:00,
2013-01-13 07:25:00,14.7,8.2,29.79,NNW,338,0.0,0.0,75,0.00,,,0.00,WUHU216HW,2013-01-13 13:25:00,
2013-01-13 07:30:00,14.7,8.2,29.79,WNW,293,1.5,2.0,75,0.00,,,0.00,WUHU216HW,2013-01-13 13:30:00,
2013-01-13 07:35:00,14.5,8.0,29.79,WNW,293,0.0,2.0,75,0.00,,,0.00,WUHU216HW,2013-01-13 13:35:00,
2013-01-13 07:41:00,14.5,8.0,29.78,West,270,0.0,1.5,75,0.00,,,0.00,WUHU216HW,2013-01-13 13:41:00,
2013-01-13 07:46:00,14.5,8.0,29.78,WNW,293,0.0,1.5,75,0.00,,,0.00,WUHU216HW,2013-01-13 13:46:00,
2013-01-13 07:51:00,14.3,7.8,29.78,West,270,0.0,1.3,75,0.00,,,0.00,WUHU216HW,2013-01-13 13:51:00,
2013-01-13 07:56:00,14.3,7.8,29.80,WNW,293,2.6,2.6,75,0.00,,,0.00,WUHU216HW,2013-01-13 13:56:00,
2013-01-13 08:01:00,14.3,7.8,29.80,West,270,5.1,5.1,75,0.00,,,0.00,WUHU216HW,2013-01-13 14:01:00,
2013-01-13 08:06:00,14.3,7.8,29.80,West,270,0.0,5.1,75,0.00,,,0.00,WUHU216HW,2013-01-13 14:06:00,
2013-01-13 08:11:00,14.3,7.8,29.80,WSW,248,0.0,0.0,75,0.00,,,0.00,WUHU216HW,2013-01-13 14:11:00,
2013-01-13 08:16:00,14.3,7.8,29.81,WSW,248,2.6,2.6,75,0.00,,,0.00,WUHU216HW,2013-01-13 14:16:00,
2013-01-13 08:21:00,14.5,8.0,29.82,WSW,248,3.8,3.8,75,0.00,,,0.00,WUHU216HW,2013-01-13 14:21:00,
2013-01-13 08:26:00,14.3,7.8,29.82,SW,225,2.0,3.8,75,0.00,,,0.00,WUHU216HW,2013-01-13 14:26:00,
2013-01-13 08:31:00,14.5,8.0,29.82,NNW,338,0.0,2.0,75,0.00,,,0.00,WUHU216HW,2013-01-13 14:31:00,
2013-01-13 08:36:00,14.5,8.0,29.82,SW,225,0.0,2.4,75,0.00,,,0.00,WUHU216HW,2013-01-13 14:36:00,
2013-01-13 08:41:00,14.7,8.2,29.83,WSW,248,0.0,2.4,75,0.00,,,0.00,WUHU216HW,2013-01-13 14:41:00,
2013-01-13 08:46:00,15.0,8.5,29.82,WSW,248,0.0,1.7,75,0.00,,,0.00,WUHU216HW,2013-01-13 14:46:00,
2013-01-13 08:51:00,15.6,9.0,29.82,WNW,293,0.0,1.7,75,0.00,,,0.00,WUHU216HW,2013-01-13 14:51:00,
2013-01-13 08:56:00,15.6,9.0,29.82,WNW,293,0.0,0.0,75,0.00,,,0.00,WUHU216HW,2013-01-13 14:56:00,
2013-01-13 09:01:00,15.9,9.3,29.82,West,270,0.0,0.0,75,0.00,,,0.00,WUHU216HW,2013-01-13 15:01:00,
2013-01-13 09:06:00,15.9,9.0,29.82,WSW,248,0.0,3.3,74,0.00,,,0.00,WUHU216HW,2013-01-13 15:06:00,
2013-01-13 09:11:00,16.3,9.4,29.83,WNW,293,0.0,3.3,74,0.00,,,0.00,WUHU216HW,2013-01-13 15:11:00,
2013-01-13 09:16:00,16.3,9.4,29.82,WNW,293,0.0,4.2,74,0.00,,,0.00,WUHU216HW,2013-01-13 15:16:00,
2013-01-13 09:21:00,16.3,9.4,29.82,NNW,338,0.0,5.8,74,0.00,,,0.00,WUHU216HW,2013-01-13 15:21:00,
2013-01-13 09:26:00,16.3,9.6,29.83,WNW,293,0.0,5.8,74,0.00,,,0.00,WUHU216HW,2013-01-13 15:26:00,
2013-01-13 09:31:00,16.5,9.3,29.83,WNW,293,7.3,7.3,73,0.00,,,0.00,WUHU216HW,2013-01-13 15:31:00,
2013-01-13 09:36:00,16.5,9.3,29.83,WNW,293,0.0,7.3,73,0.00,,,0.00,WUHU216HW,2013-01-13 15:36:00,
2013-01-13 09:41:00,16.7,9.7,29.83,WSW,248,1.3,3.5,74,0.00,,,0.00,WUHU216HW,2013-01-13 15:41:00,
2013-01-13 09:47:00,16.8,9.6,29.83,WNW,293,0.0,3.5,73,0.00,,,0.00,WUHU216HW,2013-01-13 15:47:00,
2013-01-13 09:52:00,16.8,9.6,29.82,WNW,293,3.8,3.8,73,0.00,,,0.00,WUHU216HW,2013-01-13 15:52:00,
2013-01-13 09:57:00,16.7,9.4,29.83,WNW,293,1.7,3.8,73,0.00,,,0.00,WUHU216HW,2013-01-13 15:57:00,
2013-01-13 10:02:00,16.7,9.4,29.83,WSW,248,2.2,2.2,73,0.00,,,0.00,WUHU216HW,2013-01-13 16:02:00,
2013-01-13 10:07:00,16.7,9.4,29.81,WNW,293,0.0,2.2,73,0.00,,,0.00,WUHU216HW,2013-01-13 16:07:00,
2013-01-13 10:12:00,16.8,9.3,29.81,West,270,2.0,2.0,72,0.00,,,0.00,WUHU216HW,2013-01-13 16:12:00,
2013-01-13 10:17:00,16.8,9.3,29.81,West,270,0.0,2.0,72,0.00,,,0.00,WUHU216HW,2013-01-13 16:17:00,
2013-01-13 10:22:00,17.0,9.3,29.81,WNW,293,1.3,1.3,72,0.00,,,0.00,WUHU216HW,2013-01-13 16:22:00,
2013-01-13 10:27:00,17.4,9.8,29.80,WSW,248,0.0,1.3,72,0.00,,,0.00,WUHU216HW,2013-01-13 16:27:00,
2013-01-13 10:32:00,17.4,9.8,29.80,West,270,0.0,0.0,72,0.00,,,0.00,WUHU216HW,2013-01-13 16:32:00,
2013-01-13 10:37:00,17.9,10.5,29.80,SW,225,0.0,1.7,72,0.00,,,0.00,WUHU216HW,2013-01-13 16:37:00,
2013-01-13 10:42:00,18.6,11.0,29.78,WNW,293,4.4,4.4,72,0.00,,,0.00,WUHU216HW,2013-01-13 16:42:00,
2013-01-13 10:47:00,18.8,10.6,29.78,WSW,248,0.0,4.4,70,0.00,,,0.00,WUHU216HW,2013-01-13 16:47:00,
2013-01-13 10:52:00,19.2,11.0,29.77,WSW,248,0.0,0.0,71,0.00,,,0.00,WUHU216HW,2013-01-13 16:52:00,
2013-01-13 10:57:00,19.2,10.9,29.77,WSW,248,0.0,0.0,70,0.00,,,0.00,WUHU216HW,2013-01-13 16:57:00,
2013-01-13 11:02:00,19.2,10.6,29.77,West,270,0.0,2.4,69,0.00,,,0.00,WUHU216HW,2013-01-13 17:02:00,
2013-01-13 11:07:00,19.2,10.6,29.77,West,270,0.0,6.0,69,0.00,,,0.00,WUHU216HW,2013-01-13 17:07:00,
2013-01-13 11:12:00,19.0,10.4,29.77,West,270,0.0,6.0,69,0.00,,,0.00,WUHU216HW,2013-01-13 17:12:00,
2013-01-13 11:17:00,18.6,10.1,29.76,WNW,293,2.9,2.9,69,0.00,,,0.00,WUHU216HW,2013-01-13 17:17:00,
2013-01-13 11:22:00,18.3,9.8,29.76,WNW,293,0.0,5.5,69,0.00,,,0.00,WUHU216HW,2013-01-13 17:22:00,
2013-01-13 11:27:00,18.5,9.9,29.76,NW,319,2.5,5.1,69,0.00,,,0.00,WUHU216HW,2013-01-13 17:27:00,
2013-01-13 11:32:00,18.3,9.8,29.76,West,270,2.6,5.1,69,0.00,,,0.00,WUHU216HW,2013-01-13 17:32:00,
2013-01-13 11:37:00,18.5,9.9,29.77,NW,315,2.9,4.6,69,0.00,,,0.00,WUHU216HW,2013-01-13 17:37:00,
2013-01-13 11:42:00,18.1,9.6,29.77,West,270,0.0,6.0,69,0.00,,,0.00,WUHU216HW,2013-01-13 17:42:00,
2013-01-13 11:47:00,18.1,9.6,29.77,SW,225,0.0,6.0,69,0.00,,,0.00,WUHU216HW,2013-01-13 17:47:00,
2013-01-13 11:52:00,18.3,9.8,29.77,WSW,248,3.3,3.3,69,0.00,,,0.00,WUHU216HW,2013-01-13 17:52:00,
2013-01-13 11:57:00,19.2,10.9,29.77,SSW,203,0.0,3.3,70,0.00,,,0.00,WUHU216HW,2013-01-13 17:57:00,
2013-01-13 12:02:00,19.5,10.9,29.76,NW,315,0.0,3.5,69,0.00,,,0.00,WUHU216HW,2013-01-13 18:02:00,
2013-01-13 12:07:00,19.2,10.2,29.76,WSW,248,4.0,6.9,68,0.00,,,0.00,WUHU216HW,2013-01-13 18:07:00,
2013-01-13 12:12:00,19.2,10.2,29.77,West,270,2.0,6.9,68,0.00,,,0.00,WUHU216HW,2013-01-13 18:12:00,
2013-01-13 12:17:00,19.0,9.7,29.78,WSW,248,6.4,6.4,67,0.00,,,0.00,WUHU216HW,2013-01-13 18:17:00,
2013-01-13 12:22:00,19.0,9.7,29.78,West,270,0.0,6.4,67,0.00,,,0.00,WUHU216HW,2013-01-13 18:22:00,
2013-01-13 12:27:00,19.2,9.9,29.77,WSW,248,0.0,5.1,67,0.00,,,0.00,WUHU216HW,2013-01-13 18:27:00,
2013-01-13 12:32:00,19.5,10.2,29.77,WSW,248,0.0,5.1,67,0.00,,,0.00,WUHU216HW,2013-01-13 18:32:00,
2013-01-13 12:38:00,19.9,10.6,29.77,NW,315,2.0,4.4,67,0.00,,,0.00,WUHU216HW,2013-01-13 18:38:00,
2013-01-13 12:43:00,19.9,10.6,29.77,NW,315,1.7,4.6,67,0.00,,,0.00,WUHU216HW,2013-01-13 18:43:00,
2013-01-13 12:48:00,19.9,10.6,29.77,WSW,248,0.0,4.6,67,0.00,,,0.00,WUHU216HW,2013-01-13 18:48:00,
2013-01-13 12:53:00,20.1,10.8,29.77,West,278,2.3,3.5,66,0.00,,,0.00,WUHU216HW,2013-01-13 18:53:00,
2013-01-13 12:58:00,20.1,10.4,29.77,WSW,248,0.0,6.0,66,0.00,,,0.00,WUHU216HW,2013-01-13 18:58:00,
2013-01-13 13:03:00,19.9,10.2,29.78,SSW,203,6.0,6.0,66,0.00,,,0.00,WUHU216HW,2013-01-13 19:03:00,
2013-01-13 13:08:00,20.1,10.8,29.78,WSW,248,2.9,6.0,67,0.00,,,0.00,WUHU216HW,2013-01-13 19:08:00,
2013-01-13 13:13:00,20.8,11.5,29.78,West,270,0.0,3.5,67,0.00,,,0.00,WUHU216HW,2013-01-13 19:13:00,
2013-01-13 13:18:00,21.3,11.7,29.78,NW,315,1.5,3.5,66,0.00,,,0.00,WUHU216HW,2013-01-13 19:18:00,
2013-01-13 13:23:00,21.0,11.3,29.78,WSW,248,0.0,3.8,66,0.00,,,0.00,WUHU216HW,2013-01-13 19:23:00,
2013-01-13 13:28:00,21.0,11.3,29.78,SW,225,2.0,3.8,66,0.00,,,0.00,WUHU216HW,2013-01-13 19:28:00,
2013-01-13 13:33:00,21.2,11.7,29.78,SW,225,0.0,2.0,66,0.00,,,0.00,WUHU216HW,2013-01-13 19:33:00,
2013-01-13 13:38:00,21.3,11.7,29.78,WNW,293,0.0,1.3,66,0.00,,,0.00,WUHU216HW,2013-01-13 19:38:00,
2013-01-13 13:43:00,21.2,11.3,29.78,SW,225,0.0,5.3,65,0.00,,,0.00,WUHU216HW,2013-01-13 19:43:00,
2013-01-13 13:48:00,21.0,11.0,29.77,WNW,293,4.4,5.3,65,0.00,,,0.00,WUHU216HW,2013-01-13 19:48:00,
2013-01-13 13:53:00,20.8,10.5,29.77,WSW,248,3.1,4.4,64,0.00,,,0.00,WUHU216HW,2013-01-13 19:53:00,
2013-01-13 13:58:00,20.4,10.1,29.76,SW,225,0.0,3.8,64,0.00,,,0.00,WUHU216HW,2013-01-13 19:58:00,
2013-01-13 14:03:00,20.3,9.6,29.76,West,270,0.0,8.0,63,0.00,,,0.00,WUHU216HW,2013-01-13 20:03:00,
2013-01-13 14:08:00,19.9,9.6,29.76,SW,225,7.1,8.0,64,0.00,,,0.00,WUHU216HW,2013-01-13 20:08:00,
2013-01-13 14:13:00,19.5,9.2,29.77,WSW,248,4.9,7.1,64,0.00,,,0.00,WUHU216HW,2013-01-13 20:13:00,
2013-01-13 14:18:00,19.4,9.4,29.77,WNW,293,2.0,4.9,65,0.00,,,0.00,WUHU216HW,2013-01-13 20:18:00,
2013-01-13 14:23:00,19.5,9.5,29.77,WSW,248,0.0,2.0,65,0.00,,,0.00,WUHU216HW,2013-01-13 20:23:00,
2013-01-13 14:28:00,20.3,10.3,29.77,SW,225,0.0,1.5,65,0.00,,,0.00,WUHU216HW,2013-01-13 20:28:00,
2013-01-13 14:33:00,20.8,10.5,29.77,West,270,1.7,6.9,64,0.00,,,0.00,WUHU216HW,2013-01-13 20:33:00,
2013-01-13 14:38:00,20.4,9.9,29.78,West,270,0.0,1.7,64,0.00,,,0.00,WUHU216HW,2013-01-13 20:38:00,
2013-01-13 14:43:00,19.9,9.6,29.78,WNW,293,2.0,6.2,64,0.00,,,0.00,WUHU216HW,2013-01-13 20:43:00,
2013-01-13 14:48:00,19.5,9.2,29.78,SW,225,3.8,6.2,64,0.00,,,0.00,WUHU216HW,2013-01-13 20:48:00,
2013-01-13 14:53:00,19.5,9.2,29.78,SW,225,1.5,4.0,64,0.00,,,0.00,WUHU216HW,2013-01-13 20:53:00,
2013-01-13 14:58:00,19.4,9.4,29.79,WSW,248,0.0,4.4,65,0.00,,,0.00,WUHU216HW,2013-01-13 20:58:00,
2013-01-13 15:03:00,19.4,9.4,29.79,NW,315,4.4,4.4,65,0.00,,,0.00,WUHU216HW,2013-01-13 21:03:00,
2013-01-13 15:08:00,19.2,9.2,29.80,North,0,0.0,4.4,65,0.00,,,0.00,WUHU216HW,2013-01-13 21:08:00,
2013-01-13 15:13:00,19.0,9.0,29.79,WSW,248,0.0,3.1,65,0.00,,,0.00,WUHU216HW,2013-01-13 21:13:00,
2013-01-13 15:18:00,19.0,9.0,29.80,WSW,248,1.3,6.0,65,0.00,,,0.00,WUHU216HW,2013-01-13 21:18:00,
2013-01-13 15:23:00,18.6,8.7,29.80,NNW,338,0.0,6.0,65,0.00,,,0.00,WUHU216HW,2013-01-13 21:23:00,
2013-01-13 15:29:00,18.3,8.4,29.80,WSW,248,5.5,5.5,65,0.00,,,0.00,WUHU216HW,2013-01-13 21:29:00,
2013-01-13 15:34:00,18.1,8.6,29.80,NW,315,0.0,5.5,66,0.00,,,0.00,WUHU216HW,2013-01-13 21:34:00,
2013-01-13 15:39:00,18.1,8.6,29.81,South,180,0.0,0.0,66,0.00,,,0.00,WUHU216HW,2013-01-13 21:39:00,
2013-01-13 15:44:00,17.9,8.4,29.80,NW,315,4.2,6.2,66,0.00,,,0.00,WUHU216HW,2013-01-13 21:44:00,
2013-01-13 15:49:00,17.7,8.2,29.80,WNW,293,0.0,6.2,66,0.00,,,0.00,WUHU216HW,2013-01-13 21:49:00,
2013-01-13 15:54:00,17.2,7.7,29.80,WNW,293,4.2,4.2,66,0.00,,,0.00,WUHU216HW,2013-01-13 21:54:00,
2013-01-13 15:59:00,16.8,7.4,29.80,WSW,248,0.2,4.2,66,0.00,,,0.00,WUHU216HW,2013-01-13 21:59:00,
2013-01-13 16:04:00,16.5,7.3,29.81,West,270,0.0,3.1,67,0.00,,,0.00,WUHU216HW,2013-01-13 22:04:00,
2013-01-13 16:09:00,16.1,7.0,29.81,NW,315,2.0,6.0,67,0.00,,,0.00,WUHU216HW,2013-01-13 22:09:00,
2013-01-13 16:14:00,15.9,6.8,29.81,WNW,293,0.0,6.0,67,0.00,,,0.00,WUHU216HW,2013-01-13 22:14:00,
2013-01-13 16:19:00,15.6,6.5,29.80,WSW,238,3.7,5.8,67,0.00,,,0.00,WUHU216HW,2013-01-13 22:19:00,
2013-01-13 16:24:00,15.4,6.6,29.80,WSW,248,2.6,5.8,68,0.00,,,0.00,WUHU216HW,2013-01-13 22:24:00,
2013-01-13 16:29:00,15.0,6.3,29.80,West,278,3.9,5.1,68,0.00,,,0.00,WUHU216HW,2013-01-13 22:29:00,
2013-01-13 16:34:00,14.9,6.3,29.80,WSW,248,0.6,4.9,68,0.00,,,0.00,WUHU216HW,2013-01-13 22:34:00,
2013-01-13 16:39:00,14.7,6.3,29.81,West,278,4.0,5.3,69,0.00,,,0.00,WUHU216HW,2013-01-13 22:39:00,
2013-01-13 16:44:00,14.5,6.2,29.81,West,270,4.6,5.3,69,0.00,,,0.00,WUHU216HW,2013-01-13 22:44:00,
2013-01-13 16:49:00,14.3,6.0,29.82,NW,315,0.0,5.8,69,0.00,,,0.00,WUHU216HW,2013-01-13 22:49:00,
2013-01-13 16:54:00,14.1,5.9,29.82,WNW,293,0.0,5.8,69,0.00,,,0.00,WUHU216HW,2013-01-13 22:54:00,
2013-01-13 16:59:00,14.1,6.2,29.82,WNW,293,0.0,2.9,70,0.00,,,0.00,WUHU216HW,2013-01-13 22:59:00,
2013-01-13 17:04:00,14.1,6.0,29.83,West,270,2.2,2.9,70,0.00,,,0.00,WUHU216HW,2013-01-13 23:04:00,
2013-01-13 17:09:00,13.8,5.9,29.83,WSW,255,2.3,5.8,70,0.00,,,0.00,WUHU216HW,2013-01-13 23:09:00,
2013-01-13 17:14:00,13.8,5.9,29.83,NW,315,0.0,5.8,70,0.00,,,0.00,WUHU216HW,2013-01-13 23:14:00,
2013-01-13 17:19:00,13.8,5.9,29.84,West,270,0.0,4.2,70,0.00,,,0.00,WUHU216HW,2013-01-13 23:19:00,
2013-01-13 17:24:00,13.8,5.9,29.85,WSW,248,0.0,4.2,70,0.00,,,0.00,WUHU216HW,2013-01-13 23:24:00,
2013-01-13 17:30:00,13.8,5.9,29.84,WNW,293,4.9,4.9,70,0.00,,,0.00,WUHU216HW,2013-01-13 23:30:00,
2013-01-13 17:35:00,13.8,6.1,29.85,WSW,248,3.1,4.9,71,0.00,,,0.00,WUHU216HW,2013-01-13 23:35:00,
2013-01-13 17:40:00,14.1,6.5,29.85,West,270,0.0,4.0,71,0.00,,,0.00,WUHU216HW,2013-01-13 23:40:00,
2013-01-13 17:45:00,14.1,6.5,29.85,SW,225,0.0,0.0,71,0.00,,,0.00,WUHU216HW,2013-01-13 23:45:00,
2013-01-13 17:50:00,14.1,6.5,29.85,SW,225,0.0,0.0,71,0.00,,,0.00,WUHU216HW,2013-01-13 23:50:00,
2013-01-13 17:55:00,14.1,6.8,29.85,WSW,248,0.0,0.0,72,0.00,,,0.00,WUHU216HW,2013-01-13 23:55:00,
2013-01-13 18:00:00,14.1,6.8,29.85,WSW,248,0.0,4.2,72,0.00,,,0.00,WUHU216HW,2013-01-14 00:00:00,
2013-01-13 18:05:00,14.1,6.8,29.85,WSW,248,4.2,4.2,72,0.00,,,0.00,WUHU216HW,2013-01-14 00:05:00,
2013-01-13 18:10:00,13.8,6.7,29.86,NNW,338,1.5,6.0,73,0.00,,,0.00,WUHU216HW,2013-01-14 00:10:00,
2013-01-13 18:15:00,13.8,6.4,29.86,WNW,293,5.5,5.5,72,0.00,,,0.00,WUHU216HW,2013-01-14 00:15:00,
2013-01-13 18:20:00,13.8,6.4,29.86,West,270,0.0,5.5,72,0.00,,,0.00,WUHU216HW,2013-01-14 00:20:00,
2013-01-13 18:25:00,13.6,6.0,29.88,WSW,248,0.0,4.6,71,0.00,,,0.00,WUHU216HW,2013-01-14 00:25:00,
2013-01-13 18:30:00,13.6,6.0,29.88,WNW,293,0.0,4.2,71,0.00,,,0.00,WUHU216HW,2013-01-14 00:30:00,
2013-01-13 18:35:00,13.6,6.2,29.88,WSW,248,4.6,4.6,72,0.00,,,0.00,WUHU216HW,2013-01-14 00:35:00,
2013-01-13 18:40:00,13.6,6.2,29.88,WSW,248,0.0,4.6,72,0.00,,,0.00,WUHU216HW,2013-01-14 00:40:00,
2013-01-13 18:45:00,13.6,6.2,29.88,West,270,0.0,4.6,72,0.00,,,0.00,WUHU216HW,2013-01-14 00:45:00,
2013-01-13 18:50:00,13.6,6.5,29.87,WNW,293,0.0,4.6,73,0.00,,,0.00,WUHU216HW,2013-01-14 00:50:00,
2013-01-13 18:55:00,13.4,6.4,29.88,WSW,248,2.2,4.2,73,0.00,,,0.00,WUHU216HW,2013-01-14 00:55:00,
2013-01-13 19:00:00,13.2,6.2,29.88,West,270,0.0,4.0,73,0.00,,,0.00,WUHU216HW,2013-01-14 01:00:00,
2013-01-13 19:05:00,13.4,6.5,29.88,West,270,0.0,4.0,73,0.00,,,0.00,WUHU216HW,2013-01-14 01:05:00,
2013-01-13 19:10:00,13.6,6.4,29.88,WNW,293,0.0,3.1,73,0.00,,,0.00,WUHU216HW,2013-01-14 01:10:00,
2013-01-13 19:15:00,13.4,6.4,29.88,NW,315,1.5,4.4,73,0.00,,,0.00,WUHU216HW,2013-01-14 01:15:00,
2013-01-13 19:20:00,13.2,6.2,29.88,WSW,248,0.0,4.4,73,0.00,,,0.00,WUHU216HW,2013-01-14 01:20:00,
2013-01-13 19:25:00,13.2,6.2,29.88,WNW,293,3.8,4.0,73,0.00,,,0.00,WUHU216HW,2013-01-14 01:25:00,
2013-01-13 19:30:00,13.2,6.2,29.88,West,270,2.4,3.8,73,0.00,,,0.00,WUHU216HW,2013-01-14 01:30:00,
2013-01-13 19:35:00,13.2,5.9,29.88,WSW,248,0.0,2.6,72,0.00,,,0.00,WUHU216HW,2013-01-14 01:35:00,
2013-01-13 19:40:00,13.2,5.9,29.88,West,270,0.0,3.5,72,0.00,,,0.00,WUHU216HW,2013-01-14 01:40:00,
2013-01-13 19:45:00,13.2,5.9,29.88,WNW,293,3.5,3.5,72,0.00,,,0.00,WUHU216HW,2013-01-14 01:45:00,
2013-01-13 19:51:00,13.2,5.9,29.88,West,270,2.9,3.5,72,0.00,,,0.00,WUHU216HW,2013-01-14 01:51:00,
2013-01-13 19:56:00,13.2,6.2,29.88,West,270,0.0,5.5,73,0.00,,,0.00,WUHU216HW,2013-01-14 01:56:00,
2013-01-13 20:01:00,13.2,6.2,29.89,SW,225,2.4,5.5,73,0.00,,,0.00,WUHU216HW,2013-01-14 02:01:00,
2013-01-13 20:06:00,13.2,6.2,29.89,WNW,293,0.0,2.4,73,0.00,,,0.00,WUHU216HW,2013-01-14 02:06:00,
2013-01-13 20:11:00,13.2,6.2,29.89,WNW,293,0.0,2.4,73,0.00,,,0.00,WUHU216HW,2013-01-14 02:11:00,
2013-01-13 20:16:00,13.2,6.2,29.89,WSW,248,0.0,2.4,73,0.00,,,0.00,WUHU216HW,2013-01-14 02:16:00,
2013-01-13 20:21:00,13.2,6.2,29.89,WNW,293,0.0,7.1,73,0.00,,,0.00,WUHU216HW,2013-01-14 02:21:00,
2013-01-13 20:26:00,13.2,6.5,29.89,NW,315,0.0,7.1,74,0.00,,,0.00,WUHU216HW,2013-01-14 02:26:00,
2013-01-13 20:31:00,13.1,6.3,29.89,WNW,293,0.0,7.6,74,0.00,,,0.00,WUHU216HW,2013-01-14 02:31:00,
2013-01-13 20:36:00,12.9,6.1,29.89,WNW,293,2.0,7.6,74,0.00,,,0.00,WUHU216HW,2013-01-14 02:36:00,
2013-01-13 20:41:00,12.9,6.1,29.90,NW,315,0.0,4.6,74,0.00,,,0.00,WUHU216HW,2013-01-14 02:41:00,
2013-01-13 20:46:00,12.7,5.9,29.90,West,270,3.5,4.6,74,0.00,,,0.00,WUHU216HW,2013-01-14 02:46:00,
2013-01-13 20:51:00,12.7,5.9,29.90,SW,225,5.8,5.8,74,0.00,,,0.00,WUHU216HW,2013-01-14 02:51:00,
2013-01-13 20:56:00,12.7,5.9,29.90,West,270,0.0,5.8,74,0.00,,,0.00,WUHU216HW,2013-01-14 02:56:00,
2013-01-13 21:01:00,12.7,5.9,29.90,SW,225,4.7,9.1,74,0.00,,,0.00,WUHU216HW,2013-01-14 03:01:00,
2013-01-13 21:06:00,12.7,5.9,29.90,SW,225,5.1,9.1,74,0.00,,,0.00,WUHU216HW,2013-01-14 03:06:00,
2013-01-13 21:11:00,12.7,5.9,29.90,WNW,293,0.0,7.8,74,0.00,,,0.00,WUHU216HW,2013-01-14 03:11:00,
2013-01-13 21:16:00,12.5,5.5,29.90,WSW,248,8.0,8.0,73,0.00,,,0.00,WUHU216HW,2013-01-14 03:16:00,
2013-01-13 21:21:00,12.3,5.0,29.91,WNW,293,7.8,8.0,72,0.00,,,0.00,WUHU216HW,2013-01-14 03:21:00,
2013-01-13 21:26:00,12.3,5.0,29.91,West,270,0.0,7.8,72,0.00,,,0.00,WUHU216HW,2013-01-14 03:26:00,
2013-01-13 21:31:00,12.2,4.8,29.91,WNW,293,0.0,5.3,72,0.00,,,0.00,WUHU216HW,2013-01-14 03:31:00,
2013-01-13 21:36:00,12.2,4.8,29.92,WSW,248,4.2,5.3,72,0.00,,,0.00,WUHU216HW,2013-01-14 03:36:00,
2013-01-13 21:41:00,12.3,5.3,29.93,WNW,293,1.7,4.2,73,0.00,,,0.00,WUHU216HW,2013-01-14 03:41:00,
2013-01-13 21:46:00,12.3,5.3,29.93,WSW,248,0.8,3.1,73,0.00,,,0.00,WUHU216HW,2013-01-14 03:46:00,
2013-01-13 21:51:00,12.3,5.6,29.93,SW,225,0.0,3.8,74,0.00,,,0.00,WUHU216HW,2013-01-14 03:51:00,
2013-01-13 21:56:00,12.3,5.6,29.93,WNW,293,3.5,5.8,74,0.00,,,0.00,WUHU216HW,2013-01-14 03:56:00,
2013-01-13 22:01:00,12.5,5.7,29.93,NNW,338,3.8,5.8,74,0.00,,,0.00,WUHU216HW,2013-01-14 04:01:00,
2013-01-13 22:07:00,12.3,5.6,29.93,WSW,248,0.0,6.4,74,0.00,,,0.00,WUHU216HW,2013-01-14 04:07:00,
2013-01-13 22:12:00,12.5,5.7,29.93,WNW,293,2.6,9.6,74,0.00,,,0.00,WUHU216HW,2013-01-14 04:12:00,
2013-01-13 22:17:00,12.3,5.3,29.93,SW,225,2.0,9.6,73,0.00,,,0.00,WUHU216HW,2013-01-14 04:17:00,
2013-01-13 22:22:00,12.3,5.3,29.93,WSW,248,2.9,5.5,73,0.00,,,0.00,WUHU216HW,2013-01-14 04:22:00,
2013-01-13 22:27:00,12.3,5.3,29.94,WNW,293,4.2,4.6,73,0.00,,,0.00,WUHU216HW,2013-01-14 04:27:00,
2013-01-13 22:32:00,12.3,5.3,29.94,WSW,248,3.1,4.6,73,0.00,,,0.00,WUHU216HW,2013-01-14 04:32:00,
2013-01-13 22:37:00,12.3,5.3,29.94,WSW,248,3.8,5.8,73,0.00,,,0.00,WUHU216HW,2013-01-14 04:37:00,
2013-01-13 22:42:00,12.3,5.3,29.95,SW,225,4.2,5.8,73,0.00,,,0.00,WUHU216HW,2013-01-14 04:42:00,
2013-01-13 22:47:00,12.2,4.8,29.95,West,270,4.2,5.5,72,0.00,,,0.00,WUHU216HW,2013-01-14 04:47:00,
2013-01-13 22:52:00,12.2,4.8,29.95,NW,315,0.0,5.5,72,0.00,,,0.00,WUHU216HW,2013-01-14 04:52:00,
2013-01-13 22:57:00,12.0,4.6,29.95,SW,225,0.0,4.9,72,0.00,,,0.00,WUHU216HW,2013-01-14 04:57:00,
2013-01-13 23:00:00,12.0,4.6,29.95,SW,231,7.5,11.1,72,0.00,,,0.00,WUHU216HW,2013-01-14 05:00:00,
2013-01-13 23:01:00,12.0,4.6,29.95,WSW,248,3.8,11.1,72,0.00,,,0.00,WUHU216HW,2013-01-14 05:01:00,
2013-01-13 23:03:00,12.0,4.6,29.95,WSW,248,4.6,11.1,72,0.00,,,0.00,WUHU216HW,2013-01-14 05:03:00,
2013-01-13 23:08:00,11.8,4.4,29.95,WNW,293,0.0,4.6,72,0.00,,,0.00,WUHU216HW,2013-01-14 05:08:00,
2013-01-13 23:13:00,11.6,4.3,29.96,NW,315,5.3,5.3,72,0.00,,,0.00,WUHU216HW,2013-01-14 05:13:00,
2013-01-13 23:18:00,11.6,4.3,29.96,WSW,248,0.0,5.3,72,0.00,,,0.00,WUHU216HW,2013-01-14 05:18:00,
2013-01-13 23:23:00,11.6,4.3,29.96,WNW,293,0.8,0.8,72,0.00,,,0.00,WUHU216HW,2013-01-14 05:23:00,
2013-01-13 23:28:00,11.4,4.1,29.96,SW,225,3.5,3.5,72,0.00,,,0.00,WUHU216HW,2013-01-14 05:28:00,
2013-01-13 23:34:00,11.4,4.4,29.96,WNW,293,3.3,3.5,73,0.00,,,0.00,WUHU216HW,2013-01-14 05:34:00,
2013-01-13 23:39:00,11.3,4.2,29.96,WNW,293,0.0,3.3,73,0.00,,,0.00,WUHU216HW,2013-01-14 05:39:00,
2013-01-13 23:44:00,11.1,4.0,29.96,SW,225,6.0,6.0,73,0.00,,,0.00,WUHU216HW,2013-01-14 05:44:00,
2013-01-13 23:49:00,10.5,3.5,29.97,WNW,293,2.4,6.0,73,0.00,,,0.00,WUHU216HW,2013-01-14 05:49:00,
2013-01-13 23:54:00,10.0,2.7,29.96,West,270,5.5,6.0,72,0.00,,,0.00,WUHU216HW,2013-01-14 05:54:00,
2013-01-13 23:59:00,9.6,2.4,29.96,NW,315,0.0,5.5,72,0.00,,,0.00,WUHU216HW,2013-01-14 05:59:00,